D/T METAR WX W/DIR W/SPE G/SPE TEMP DEWP
23/08/19 12:20 EGTC 231120Z 23004KT 170V270 9999 FEW030 21/15 Q1024 SW (230°) 4.6mph 21°C 15°C
23/08/19 11:50 EGTC 231050Z 21006KT 170V260 9999 FEW020 21/15 Q1025 SSW (210°) 6.9mph 21°C 15°C
23/08/19 11:20 EGTC 231020Z 22007KT 190V250 9999 FEW018 20/15 Q1025 SW (220°) 8.1mph 20°C 15°C
23/08/19 10:50 EGTC 230950Z 22007KT 190V270 9999 FEW018 20/15 Q1025 SW (220°) 8.1mph 20°C 15°C
23/08/19 10:20 EGTC 230920Z 25009KT 9999 SCT018 19/15 Q1025 WSW (250°) 10.4mph 19°C 15°C
23/08/19 09:20 EGTC 230820Z 28006KT 9999 SCT010 18/15 Q1025 W (280°) 6.9mph 18°C 15°C
23/08/19 08:50 EGTC 230750Z 26005KT 9999 FEW010 17/15 Q1025 W (260°) 5.8mph 17°C 15°C
23/08/19 08:20 EGTC 230720Z 23007KT 9999 FEW015 16/15 Q1025 SW (230°) 8.1mph 16°C 15°C
23/08/19 07:50 EGTC 230650Z 22006KT 9999 FEW015 15/14 Q1025 SW (220°) 6.9mph 15°C 14°C
22/08/19 17:20 EGTC 221620Z 24011KT 210V180 9999 SCT036 21/14 Q1023 WSW (240°) 12.7mph 21°C 14°C
22/08/19 16:50 EGTC 221550Z 23010G20KT 9999 SCT036 21/13 Q1023 SW (230°) 11.5mph 23.0mph 21°C 13°C
22/08/19 15:50 EGTC 221450Z 22014KT 200V260 9999 SCT038 22/14 Q1023 SW (220°) 16.1mph 22°C 14°C
22/08/19 15:20 EGTC 221420Z 22014KT 9999 SC035 21/14 Q1023 SW (220°) 16.1mph 21°C 14°C
22/08/19 14:50 EGTC 221350Z 23014KT 200V280 9999 FEW034 22/14 Q1023 SW (230°) 16.1mph 22°C 14°C
22/08/19 14:20 EGTC 221320Z 22010G21KT 200V280 9999 SCT032 22/14 Q1023 SW (220°) 11.5mph 24.2mph 22°C 14°C
22/08/19 13:50 EGTC 221250Z 25013KT 9999 BKN032 21/14 Q1024 WSW (250°) 15.0mph 21°C 14°C
22/08/19 13:20 EGTC 221220Z 23011KT 200V270 9999 BKN032 21/14 Q1023 SW (230°) 12.7mph 21°C 14°C
22/08/19 12:50 EGTC 221150Z 23014KT 9999 BKN034 21/14 Q1023 SW (230°) 16.1mph 21°C 14°C
22/08/19 12:20 EGTC 221120Z 23012KT 200V280 9999 BKN031 21/14 Q1023 SW (230°) 13.8mph 21°C 14°C
22/08/19 11:50 EGTC 221050Z 24012KT 190V290 9999 FEW028 21/14 Q1023 WSW (240°) 13.8mph 21°C 14°C
22/08/19 11:20 EGTC 221020Z 22013KT 9999 FEW027 20/14 Q1023 SW (220°) 15.0mph 20°C 14°C
22/08/19 10:20 EGTC 220920Z 23010KT 9999 FEW017 18/14 Q1024 SW (230°) 11.5mph 18°C 14°C
22/08/19 09:50 EGTC 220850Z 22013KT 9999 FEW016 17/14 Q1024 SW (220°) 15.0mph 17°C 14°C
22/08/19 09:20 EGTC 220820Z 22011KT 9999 FEW015 17/13 Q1024 SW (220°) 12.7mph 17°C 13°C
22/08/19 08:50 EGTC 220750Z 22013KT FEW015 16/13 Q1024 SW (220°) 15.0mph 16°C 13°C
22/08/19 08:20 EGTC 220720Z 22012KT 200V260 CAVOK 15/13 Q1024 SW (220°) 13.8mph 15°C 13°C
22/08/19 07:50 EGTC 220650Z 22010KT CAVOK 14/12 Q1023 SW (220°) 11.5mph 14°C 12°C
22/08/19 07:20 EGTC 220620Z 21011KT CAVOK 12/11 Q1023 SSW (210°) 12.7mph 12°C 11°C
21/08/19 17:50 EGTC 211650Z 19009KT CAVOK 21/11 Q1024 S (190°) 10.4mph 21°C 11°C
21/08/19 17:20 EGTC 211620Z 19011KT 9999 FEW048 21/10 Q1024 S (190°) 12.7mph 21°C 10°C
21/08/19 16:50 EGTC 211550Z 21013KT 190V250 9999 FEW049 22/10 Q1024 SSW (210°) 15.0mph 22°C 10°C
21/08/19 16:20 EGTC 211520Z 20013KT 9999 FEW049 22/10 Q1024 SSW (200°) 15.0mph 22°C 10°C
21/08/19 15:50 EGTC 211450Z 20012KT 170V250 9999 FEW049 22/10 Q1024 SSW (200°) 13.8mph 22°C 10°C
21/08/19 15:20 EGTC 211420Z 22011KT 170V240 9999 FEW049 22/11 Q1025 SW (220°) 12.7mph 22°C 11°C
21/08/19 14:50 EGTC 211350Z 19015KT 9999 FEW049 21/10 Q1025 S (190°) 17.3mph 21°C 10°C
21/08/19 14:20 EGTC 211320Z 21010G21KT 170V250 9999 SCT045 21/10 Q1025 SSW (210°) 11.5mph 24.2mph 21°C 10°C
21/08/19 13:50 EGTC 211250Z 22012KT 9999 SCT042 21/11 Q1025 SW (220°) 13.8mph 21°C 11°C
21/08/19 13:20 EGTC 211220Z 22011KT 9999 FEW042 21/11 Q1025 SW (220°) 12.7mph 21°C 11°C
21/08/19 12:20 EGTC 211120Z 20009KT 150V250 9999 FEW030 20/12 Q1026 SSW (200°) 10.4mph 20°C 12°C
21/08/19 11:20 EGTC 211020Z 24008KT 210V280 9999 FEW024 19/13 Q1026 WSW (240°) 9.2mph 19°C 13°C
21/08/19 10:20 EGTC 210920Z 22007KT 9999 FEW018 17/13 Q1027 SW (220°) 8.1mph 17°C 13°C
21/08/19 09:50 EGTC 210850Z 22008KT 9999 FEW015 17/14 Q1027 SW (220°) 9.2mph 17°C 14°C
21/08/19 09:20 EGTC 210820Z 21008KT 9999 FEW014 15/13 Q1027 SSW (210°) 9.2mph 15°C 13°C
21/08/19 08:50 EGTC 210750Z 22008KT CAVOK 15/13 Q1027 SW (220°) 9.2mph 15°C 13°C
21/08/19 08:20 EGTC 210720Z 22008KT CAVOK 14/13 Q1027 SW (220°) 9.2mph 14°C 13°C
21/08/19 07:20 EGTC 210620Z 22005KT CAVOK 13/12 Q1026 SW (220°) 5.8mph 13°C 12°C
20/08/19 17:50 EGTC 201650Z 27009KT 220V300 CAVOK 20/06 Q1023 W (270°) 10.4mph 20°C 6°C
20/08/19 17:20 EGTC 201620Z 25009KT 250V350 CAVOK 19/06 Q1023 WSW (250°) 10.4mph 19°C 6°C